Champion — WCZ7631 — position and weather

sailwx.info

Track history (hours):
 
Tides and Currents Weather Stations Pressure Air Temp Water Temp Dewpoint Dewpoint Depression Visibility Wind Speed Wind Dir Waves Ship Positions

Champion

Owner: MC CULLEY MARINE SERVICES INC, FORT PIERCE, FL. More information available from US FCC via Universal Licensing System and Coast Guard Vessel Documentation Center.

Last reported at 2015-Jul-30 10:15 UTC. Time now 2015-Jul-30 20:12 UTC.
Position N 26°49' W 080°00'.

Length 20 m; draft 1.7 m.

Type: Towing. MMSI: 367005250.

Date/timePositionNaut miles runAvg speedWind from/ knotsBaromVisibWave heightAir tempDewpointWater temp
2015-Jul-30 10:15N 26°49' W 080°00'4 5.5
2015-Jul-30 09:33N 26°52' W 080°02'6 5.8
2015-Jul-30 08:33N 26°58' W 080°04'6 6.1
2015-Jul-30 07:33N 27°04' W 080°06'2 0.1
2015-Jul-28 23:33N 27°03' W 080°03'6 6.1
2015-Jul-28 22:33N 26°57' W 080°00'24 8.0
2015-Jul-28 19:33N 26°33' W 079°60'8 7.5
2015-Jul-28 18:33N 26°26' W 080°01'6 5.8
2015-Jul-28 17:33N 26°20' W 080°02'2 1.8
2015-Jul-28 16:33N 26°19' W 080°04'0 0.0
2015-Jul-28 15:33N 26°19' W 080°04'0 0.0
2015-Jul-28 14:33N 26°19' W 080°04'0 0.0
2015-Jul-28 13:33N 26°19' W 080°04'0 0.1
2015-Jul-28 12:33N 26°19' W 080°04'  
Track history (hours):
 
Tides and Currents Weather Stations Pressure Air Temp Water Temp Dewpoint Dewpoint Depression Visibility Wind Speed Wind Dir Waves Ship Positions

Champion

Owner: MC CULLEY MARINE SERVICES INC, FORT PIERCE, FL. More information available from US FCC via Universal Licensing System and Coast Guard Vessel Documentation Center.

Last reported at 2015-Jul-30 10:15 UTC. Time now 2015-Jul-30 20:12 UTC.
Position N 26°49' W 080°00'.

Length 20 m; draft 1.7 m.

Type: Towing. MMSI: 367005250.

Date/timePositionNaut miles runAvg speedWind from/ knotsBaromVisibWave heightAir tempDewpointWater temp
2015-Jul-30 10:15N 26°49' W 080°00'4 5.5
2015-Jul-30 09:33N 26°52' W 080°02'6 5.8
2015-Jul-30 08:33N 26°58' W 080°04'6 6.1
2015-Jul-30 07:33N 27°04' W 080°06'2 0.1
2015-Jul-28 23:33N 27°03' W 080°03'6 6.1
2015-Jul-28 22:33N 26°57' W 080°00'24 8.0
2015-Jul-28 19:33N 26°33' W 079°60'8 7.5
2015-Jul-28 18:33N 26°26' W 080°01'6 5.8
2015-Jul-28 17:33N 26°20' W 080°02'2 1.8
2015-Jul-28 16:33N 26°19' W 080°04'0 0.0
2015-Jul-28 15:33N 26°19' W 080°04'0 0.0
2015-Jul-28 14:33N 26°19' W 080°04'0 0.0
2015-Jul-28 13:33N 26°19' W 080°04'0 0.1
2015-Jul-28 12:33N 26°19' W 080°04'  

Dump ship's entire track history